Onaga, Kansas
Current Conditions -  °F | °C
As of 4:15 PM on Friday 24 Oct 2014 (Local Time) from KMYZ Reporting Station
Clear Clear  
Wind Chill: 79°   Ceiling: Unl
Heat Index: 81°   Visibility: 10mi
Dew Point: 64°   Wind: 12mph
Humidity: 61%   Direction: 210°SSW
Pressure: 29.9"   Gusts: 17mph
Location:  39.49°N, 96.17°W
Report Text: KMYZ 242115Z AUTO 21010G15KT 10SM CLR 26/18 A2990 RMK AO2
Loading
Personal Weather Stations






























Interactive Weather Map
Tropical Storm Tracking
New forecast layout! Learn more

10-Day Weather Forecast

Advertisements
Track Severe Weather on mobile